Time;durP1;ratioP1;P1;durP2;ratioP2;P2;SDS_P1;SDS_P2;PMS_P1;PMS_P2;Temp;Humidity;BMP_temperature;BMP_pressure;BME280_temperature;BME280_humidity;BME280_pressure;Samples;Min_cycle;Max_cycle;Signal;HPM_P1;HPM_P2
2022/09/25 00:02:00;;;;;;;;;2.00;1.00;;;;;15.90;60.85;101215.44;5039681;28;45440;-90
2022/09/25 00:04:26;;;;;;;;;3.00;1.50;;;;;15.89;61.37;101208.47;5039552;28;45378;-90
2022/09/25 00:06:51;;;;;;;;;2.00;2.00;;;;;15.89;60.96;101208.47;5038931;28;47180;-90
2022/09/25 00:09:22;;;;;;;;;2.75;1.75;;;;;15.87;60.67;101210.31;5057456;28;45361;-90
2022/09/25 00:11:49;;;;;;;;;8.50;2.50;;;;;15.82;60.80;101213.16;5040462;28;45342;-90
2022/09/25 00:14:15;;;;;;;;;2.00;2.00;;;;;15.76;61.05;101212.56;5040290;28;46210;-90
2022/09/25 00:16:40;;;;;;;;;3.00;2.00;;;;;15.71;61.04;101220.59;5056174;28;48550;-89
2022/09/25 00:21:51;;;;;;;;;2.00;2.00;;;;;15.64;61.13;101225.25;5042316;28;45368;-90
2022/09/25 00:24:17;;;;;;;;;2.75;1.00;;;;;15.62;61.53;101231.47;5039678;28;45470;-90
2022/09/25 00:26:43;;;;;;;;;2.75;1.75;;;;;15.64;61.13;101227.03;5055712;28;46872;-89
2022/09/25 00:29:13;;;;;;;;;2.25;1.00;;;;;15.64;61.30;101232.28;5039124;28;45432;-89
2022/09/25 00:31:39;;;;;;;;;2.00;1.00;;;;;15.59;61.11;101235.09;5039379;28;45383;-90
2022/09/25 00:34:05;;;;;;;;;1.25;1.00;;;;;15.58;61.09;101233.41;5068694;27;45338;-89
2022/09/25 00:36:30;;;;;;;;;2.00;2.00;;;;;15.53;61.27;101232.72;5038777;28;46163;-90
2022/09/25 00:38:57;;;;;;;;;5.00;1.50;;;;;15.53;61.37;101227.47;5022529;28;45731;-89
2022/09/25 00:41:24;;;;;;;;;2.00;1.00;;;;;15.51;61.28;101228.44;5039382;28;45331;-90
2022/09/25 00:43:54;;;;;;;;;3.00;2.00;;;;;15.46;61.50;101226.88;5036003;28;45207;-90
2022/09/25 00:46:43;;;;;;;;;5.25;2.50;;;;;15.44;61.39;101220.84;5035378;28;46569;-90
2022/09/25 00:49:17;;;;;;;;;3.00;1.75;;;;;15.49;61.08;101237.25;5038922;28;45811;-90
2022/09/25 00:51:53;;;;;;;;;2.75;1.25;;;;;15.48;61.52;101229.44;5039028;28;45509;-90
2022/09/25 00:54:34;;;;;;;;;3.50;3.50;;;;;15.46;61.51;101224.25;5039036;28;45379;-89
2022/09/25 00:57:02;;;;;;;;;6.75;3.75;;;;;15.46;61.47;101224.25;5038630;28;45476;-89
2022/09/25 00:59:37;;;;;;;;;3.75;3.00;;;;;15.46;61.73;101220.78;5022187;28;45730;-89
2022/09/25 01:02:03;;;;;;;;;4.00;2.00;;;;;15.50;61.65;101227.59;5038647;28;45360;-89
2022/09/25 01:04:31;;;;;;;;;3.75;2.50;;;;;15.53;61.60;101224.00;5022280;28;45566;-90
2022/09/25 01:06:58;;;;;;;;;4.50;3.00;;;;;15.54;61.29;101223.09;5038688;28;46511;-90
2022/09/25 01:09:24;;;;;;;;;2.50;2.00;;;;;15.51;61.64;101225.81;5055497;28;45473;-90
2022/09/25 01:11:49;;;;;;;;;2.75;2.75;;;;;15.46;61.96;101221.63;5021707;28;45394;-89
2022/09/25 01:14:16;;;;;;;;;3.50;3.00;;;;;15.48;61.83;101230.28;5038636;28;45639;-91
2022/09/25 01:16:51;;;;;;;;;6.00;2.50;;;;;15.47;61.64;101223.34;5038346;28;46223;-89
2022/09/25 01:19:31;;;;;;;;;4.25;2.75;;;;;15.48;61.47;101229.44;5037619;28;45337;-91
2022/09/25 01:22:07;;;;;;;;;6.75;4.00;;;;;15.44;61.56;101228.72;5056840;28;45331;-90
2022/09/25 01:24:43;;;;;;;;;2.25;2.00;;;;;15.42;61.97;101232.31;5055689;28;45293;-90
2022/09/25 01:27:12;;;;;;;;;2.00;2.00;;;;;15.38;62.03;101223.72;5038538;28;47091;-90
2022/09/25 01:29:40;;;;;;;;;4.00;3.25;;;;;15.37;62.23;101224.63;5056287;28;45741;-90
2022/09/25 01:32:12;;;;;;;;;6.00;4.00;;;;;15.36;62.19;101228.19;5056296;28;45309;-89
2022/09/25 01:34:58;;;;;;;;;4.25;2.25;;;;;15.35;62.24;101213.34;5075790;27;45528;-89
2022/09/25 01:37:30;;;;;;;;;3.25;3.25;;;;;15.33;61.99;101214.34;5023750;28;47193;-90
2022/09/25 01:40:06;;;;;;;;;3.00;3.00;;;;;15.29;61.99;101211.84;5056264;28;45258;-90
2022/09/25 01:42:45;;;;;;;;;3.50;3.00;;;;;15.26;62.06;101216.34;5038629;28;45240;-89
2022/09/25 01:45:29;;;;;;;;;5.00;3.75;;;;;15.22;62.26;101218.25;5055926;28;45285;-90
2022/09/25 01:47:56;;;;;;;;;3.50;3.00;;;;;15.18;62.34;101210.59;5038051;28;46802;-90
2022/09/25 01:50:28;;;;;;;;;4.50;3.75;;;;;15.16;62.89;101215.88;5038131;28;45377;-89
2022/09/25 01:52:58;;;;;;;;;3.25;3.00;;;;;15.17;62.68;101212.31;5054923;28;45415;-89
2022/09/25 01:55:34;;;;;;;;;4.75;3.75;;;;;15.18;62.81;101207.97;5038122;28;45333;-88
2022/09/25 01:58:13;;;;;;;;;4.25;3.25;;;;;15.18;62.84;101219.28;5038038;28;48586;-90
2022/09/25 02:00:40;;;;;;;;;4.00;4.00;;;;;15.19;62.87;101217.50;5055464;28;45373;-90
2022/09/25 02:03:24;;;;;;;;;5.25;3.75;;;;;15.21;62.93;101226.16;5054696;28;45461;-89
2022/09/25 02:05:53;;;;;;;;;3.00;3.00;;;;;15.22;62.86;101231.34;5054757;28;45355;-90
2022/09/25 02:08:28;;;;;;;;;4.00;4.00;;;;;15.20;62.92;101238.44;5037607;28;48148;-89
2022/09/25 02:10:57;;;;;;;;;4.75;4.00;;;;;15.21;63.17;101232.28;5017972;28;45354;-89
2022/09/25 02:13:27;;;;;;;;;4.00;3.75;;;;;15.24;62.81;101231.28;5001130;28;45447;-90
2022/09/25 02:15:58;;;;;;;;;6.00;4.50;;;;;15.24;63.25;101228.69;5001081;28;45443;-90
2022/09/25 02:21:34;;;;;;;;;3.50;3.50;;;;;15.26;62.72;101224.22;5020593;28;45769;-89
2022/09/25 02:24:11;;;;;;;;;4.00;3.00;;;;;15.26;63.06;101226.84;5035423;28;45482;-90
2022/09/25 02:26:37;;;;;;;;;4.00;4.00;;;;;15.26;62.57;101225.06;5001584;28;45591;-89
2022/09/25 02:29:03;;;;;;;;;7.75;2.50;;;;;15.23;63.27;101232.19;5017457;28;47053;-90
2022/09/25 02:31:36;;;;;;;;;3.75;2.25;;;;;15.24;62.98;101228.69;5020538;28;45834;-90
2022/09/25 02:34:05;;;;;;;;;4.00;2.75;;;;;15.26;62.97;101232.09;5050330;28;45349;-89
2022/09/25 02:36:32;;;;;;;;;3.75;3.00;;;;;15.30;62.79;101231.03;5077621;28;45347;-89
2022/09/25 02:38:58;;;;;;;;;4.50;4.50;;;;;15.29;62.72;101227.56;5058642;28;46554;-89
2022/09/25 02:41:50;;;;;;;;;7.75;5.00;;;;;15.32;63.15;101228.34;5057374;28;45303;-89
2022/09/25 02:44:46;;;;;;;;;5.25;4.50;;;;;15.31;62.65;101226.66;5040777;28;45480;-89
2022/09/25 02:47:20;;;;;;;;;9.00;5.50;;;;;15.30;63.13;101225.78;5030439;28;45574;-89
2022/09/25 02:49:51;;;;;;;;;6.00;4.00;;;;;15.31;63.36;101229.28;5040283;28;48024;-89
2022/09/25 02:52:25;;;;;;;;;8.25;4.50;;;;;15.30;63.01;101238.91;5057255;28;45451;-90
2022/09/25 02:55:04;;;;;;;;;5.00;5.00;;;;;15.30;63.32;101236.28;5040771;28;45334;-90
2022/09/25 02:57:44;;;;;;;;;6.50;4.75;;;;;15.26;63.34;101240.81;5040527;28;45544;-89
2022/09/25 03:00:10;;;;;;;;;7.50;4.50;;;;;15.24;63.58;101247.03;5040000;28;45517;-90
2022/09/25 03:02:37;;;;;;;;;5.75;4.00;;;;;15.21;63.50;101244.53;5040671;28;45266;-90
2022/09/25 03:05:05;;;;;;;;;7.25;5.00;;;;;15.20;63.38;101242.84;5033314;28;45402;-89
2022/09/25 03:08:36;;;;;;;;;4.50;4.25;;;;;15.18;63.63;101253.38;5020452;28;45352;-89
2022/09/25 03:10:17;;;;;;;;;5.00;4.50;;;;;15.14;63.63;101249.19;5023223;28;46345;-89
2022/09/25 03:12:42;;;;;;;;;10.75;5.00;;;;;15.13;63.46;101236.13;5036571;28;45702;-89
2022/09/25 03:15:10;;;;;;;;;5.75;5.00;;;;;15.10;63.58;101237.13;5037175;28;45333;-90
2022/09/25 03:17:38;;;;;;;;;8.25;6.00;;;;;15.06;63.53;101246.88;5020736;28;45533;-89
2022/09/25 03:20:05;;;;;;;;;8.00;6.00;;;;;15.04;64.04;101246.06;5038321;28;46795;-90
2022/09/25 03:22:30;;;;;;;;;6.00;6.00;;;;;15.02;63.80;101247.88;5020553;28;45611;-92
2022/09/25 03:24:55;;;;;;;;;9.75;7.50;;;;;15.01;64.48;101248.81;5020255;28;45416;-89
2022/09/25 03:27:21;;;;;;;;;11.50;6.25;;;;;15.02;63.54;101249.66;5020276;28;45334;-90
2022/09/25 03:29:48;;;;;;;;;8.25;6.50;;;;;15.00;63.90;101248.88;5020315;28;47440;-89
2022/09/25 03:32:14;;;;;;;;;8.75;8.00;;;;;15.00;64.40;101248.88;5003571;28;45835;-90
2022/09/25 03:34:42;;;;;;;;;7.50;5.00;;;;;15.02;64.21;101247.03;5058023;28;45290;-90
2022/09/25 03:37:08;;;;;;;;;11.00;8.00;;;;;15.05;64.22;101252.16;5040429;28;45803;-90
2022/09/25 03:39:33;;;;;;;;;8.75;6.00;;;;;15.05;63.78;101257.41;5023947;28;47820;-91
2022/09/25 03:42:01;;;;;;;;;7.75;6.00;;;;;15.01;63.72;101253.22;5019083;28;45441;-90
2022/09/25 03:44:28;;;;;;;;;8.00;7.00;;;;;15.01;64.13;101258.44;5020629;28;45349;-90
2022/09/25 03:46:54;;;;;;;;;10.25;7.75;;;;;14.99;64.11;101263.75;5037633;28;45514;-89
2022/09/25 03:49:19;;;;;;;;;9.00;6.00;;;;;15.01;64.10;101255.81;5003124;28;48129;-90
2022/09/25 03:51:45;;;;;;;;;9.00;6.00;;;;;14.99;63.96;101266.38;5036315;28;45438;-89
2022/09/25 03:54:10;;;;;;;;;8.50;7.50;;;;;14.99;64.20;101260.25;5019947;28;45351;-89
2022/09/25 03:56:38;;;;;;;;;7.75;5.75;;;;;14.99;64.12;101260.25;5002992;28;45498;-89
2022/09/25 03:59:04;;;;;;;;;8.75;5.75;;;;;14.98;64.27;101251.53;5037485;28;45497;-89
2022/09/25 04:01:29;;;;;;;;;7.50;4.75;;;;;15.02;64.47;101254.91;5037332;28;45356;-90
2022/09/25 04:03:54;;;;;;;;;7.75;4.75;;;;;15.01;64.14;101253.22;5019932;28;45408;-90
2022/09/25 04:06:24;;;;;;;;;6.25;6.00;;;;;14.99;64.40;101253.25;5017260;28;45314;-89
2022/09/25 04:08:49;;;;;;;;;8.75;5.00;;;;;14.99;63.59;101263.75;5049346;28;46147;-90
2022/09/25 04:11:16;;;;;;;;;5.25;5.00;;;;;14.95;63.84;101256.91;5057142;28;45452;-90
2022/09/25 04:13:44;;;;;;;;;6.25;5.50;;;;;14.93;63.85;101261.34;5056279;28;45332;-90
2022/09/25 04:16:11;;;;;;;;;9.25;8.25;;;;;14.89;64.18;101263.25;5039878;28;45332;-89
2022/09/25 04:18:39;;;;;;;;;7.00;5.25;;;;;14.88;64.30;101263.31;5039446;28;47165;-90
2022/09/25 04:21:07;;;;;;;;;7.00;7.00;;;;;14.89;64.69;101262.38;5022839;28;46169;-89
2022/09/25 04:23:33;;;;;;;;;9.75;6.00;;;;;14.91;64.75;101268.41;5039765;28;45442;-89
2022/09/25 04:25:58;;;;;;;;;9.00;8.75;;;;;14.89;64.31;101262.38;5038500;28;45419;-89
2022/09/25 04:28:24;;;;;;;;;10.25;8.00;;;;;14.90;64.71;101277.22;5022517;28;47961;-89
2022/09/25 04:30:50;;;;;;;;;10.25;9.50;;;;;14.89;64.32;101270.25;5057035;28;45297;-90
2022/09/25 04:36:00;;;;;;;;;11.50;9.00;;;;;14.89;64.40;101275.50;5077412;28;45363;-90
2022/09/25 04:38:25;;;;;;;;;15.50;9.50;;;;;14.89;64.38;101276.38;5059069;28;46262;-89
2022/09/25 04:40:51;;;;;;;;;10.75;8.25;;;;;14.91;64.77;101276.28;5039233;28;46212;-89
2022/09/25 04:43:17;;;;;;;;;12.75;10.00;;;;;14.95;64.38;101272.66;5057022;28;45542;-90
2022/09/25 04:45:42;;;;;;;;;10.50;8.00;;;;;14.97;64.45;101278.69;5039082;28;45259;-89
2022/09/25 04:48:08;;;;;;;;;16.00;11.75;;;;;14.98;64.10;101271.66;5055170;28;47150;-89
2022/09/25 04:50:33;;;;;;;;;9.75;9.75;;;;;15.01;63.98;101282.88;5038795;28;45425;-89
2022/09/25 04:52:59;;;;;;;;;10.00;8.75;;;;;14.99;64.05;101278.59;5038808;28;45419;-90
2022/09/25 04:55:26;;;;;;;;;10.50;9.00;;;;;14.95;63.76;101280.50;5038712;28;45492;-89
2022/09/25 04:58:00;;;;;;;;;14.00;8.75;;;;;14.89;63.57;101278.09;5038706;28;46403;-89
2022/09/25 05:00:28;;;;;;;;;11.25;8.00;;;;;14.88;64.00;101295.59;5038744;28;45744;-89
2022/09/25 05:02:53;;;;;;;;;13.50;8.50;;;;;14.87;63.94;101301.75;5055534;28;45468;-89
2022/09/25 05:05:19;;;;;;;;;14.25;11.00;;;;;14.86;64.55;101300.06;5034935;28;45296;-89
2022/09/25 05:07:55;;;;;;;;;10.50;9.50;;;;;14.88;63.89;101298.22;5036084;28;47050;-89
2022/09/25 05:10:21;;;;;;;;;12.75;9.25;;;;;14.90;64.11;101303.41;5036473;28;45744;-89
2022/09/25 05:12:47;;;;;;;;;11.50;9.50;;;;;14.89;63.94;101301.69;5036242;28;45492;-89
2022/09/25 05:15:15;;;;;;;;;15.75;10.00;;;;;14.87;63.40;101293.88;5018592;28;45380;-90
2022/09/25 05:17:40;;;;;;;;;10.25;8.00;;;;;14.82;63.73;101297.59;5036116;28;46640;-89
2022/09/25 05:20:08;;;;;;;;;9.00;8.00;;;;;14.77;63.69;101296.94;5001810;28;45543;-89
2022/09/25 05:22:34;;;;;;;;;8.25;8.25;;;;;14.71;63.34;101303.25;5035950;28;45426;-90
2022/09/25 05:24:59;;;;;;;;;9.75;7.50;;;;;14.64;63.97;101299.16;5018438;28;45482;-89
2022/09/25 05:27:25;;;;;;;;;9.00;7.75;;;;;14.62;63.80;101299.22;5001891;28;47187;-89
2022/09/25 05:29:50;;;;;;;;;8.75;8.50;;;;;14.59;63.92;101299.31;5001734;28;45514;-89
2022/09/25 05:32:17;;;;;;;;;9.50;8.00;;;;;14.58;64.30;101307.22;5018244;28;45632;-88
2022/09/25 05:34:43;;;;;;;;;8.75;5.00;;;;;14.54;63.75;101298.59;5014986;28;45567;-89
2022/09/25 05:37:08;;;;;;;;;10.75;5.00;;;;;14.51;64.18;101309.19;4998080;28;45256;-88
2022/09/25 05:39:33;;;;;;;;;9.50;7.00;;;;;14.50;63.63;101307.47;4982021;28;45312;-88
2022/09/25 05:42:01;;;;;;;;;8.00;4.50;;;;;14.46;64.01;101306.72;5001710;28;45506;-89
2022/09/25 05:44:27;;;;;;;;;8.00;6.75;;;;;14.41;64.17;101315.66;5001897;28;45566;-88
2022/09/25 05:46:55;;;;;;;;;5.50;4.75;;;;;14.40;64.29;101324.44;5001368;28;47197;-88
2022/09/25 05:49:21;;;;;;;;;9.00;8.00;;;;;14.39;64.42;101325.34;5035453;28;45676;-88
2022/09/25 05:51:47;;;;;;;;;8.50;7.25;;;;;14.39;63.87;101318.31;5017912;28;45385;-88
2022/09/25 05:54:12;;;;;;;;;8.00;6.25;;;;;14.37;63.83;101330.63;5018339;28;45558;-89
2022/09/25 05:56:38;;;;;;;;;8.25;4.50;;;;;14.37;63.32;101329.78;5001452;28;47066;-89
2022/09/25 05:59:03;;;;;;;;;6.00;4.25;;;;;14.32;63.71;101330.81;5018027;28;45227;-89
2022/09/25 06:01:28;;;;;;;;;6.50;2.50;;;;;14.31;63.68;101339.56;5001489;28;45737;-89
2022/09/25 06:03:54;;;;;;;;;7.25;5.00;;;;;14.30;63.58;101339.59;5001509;28;45428;-88
2022/09/25 06:06:20;;;;;;;;;8.00;4.00;;;;;14.26;63.42;101335.38;5037849;28;48350;-89
2022/09/25 06:08:47;;;;;;;;;4.25;4.25;;;;;14.19;63.45;101334.75;5041485;28;45484;-89
2022/09/25 06:11:13;;;;;;;;;4.50;3.75;;;;;14.13;63.40;101345.41;5037169;28;45417;-89
2022/09/25 06:13:38;;;;;;;;;6.25;3.50;;;;;14.08;64.10;101344.75;5034990;28;45445;-91
2022/09/25 06:16:04;;;;;;;;;4.00;2.50;;;;;14.08;63.54;101342.13;5008017;28;47333;-91
2022/09/25 06:18:30;;;;;;;;;6.50;5.00;;;;;14.04;63.89;101340.50;5040988;28;45376;-89
2022/09/25 06:21:01;;;;;;;;;9.25;5.00;;;;;14.03;63.93;101344.88;5041477;28;45352;-88
2022/09/25 06:23:26;;;;;;;;;6.00;2.75;;;;;14.01;64.01;101344.09;5058649;28;45341;-89
2022/09/25 06:25:52;;;;;;;;;4.50;4.50;;;;;13.97;63.80;101352.94;5040807;28;52503;-90
2022/09/25 06:28:17;;;;;;;;;4.50;3.50;;;;;13.93;63.81;101344.34;5024766;28;50111;-90
2022/09/25 06:30:42;;;;;;;;;6.50;3.25;;;;;13.90;64.21;101341.81;5024749;28;45370;-90
2022/09/25 06:33:12;;;;;;;;;7.00;4.00;;;;;13.89;63.88;101347.97;5043875;28;45543;-88
2022/09/25 06:35:46;;;;;;;;;5.00;3.00;;;;;13.88;63.42;101356.72;5058873;28;46470;-89
2022/09/25 06:38:12;;;;;;;;;5.00;3.75;;;;;13.84;63.64;101347.28;5031720;28;45833;-85
2022/09/25 06:40:39;;;;;;;;;4.50;3.50;;;;;13.80;63.86;101355.25;5056686;28;45418;-86
2022/09/25 06:43:05;;;;;;;;;7.00;4.00;;;;;13.78;63.73;101355.31;5037366;28;45267;-85
2022/09/25 06:45:32;;;;;;;;;6.75;2.75;;;;;13.76;63.57;101351.88;5053756;28;46357;-86
2022/09/25 06:48:04;;;;;;;;;8.00;3.00;;;;;13.73;64.00;101349.38;5058034;28;45345;-87
2022/09/25 06:50:37;;;;;;;;;5.50;3.00;;;;;13.70;63.95;101347.69;5057060;28;45320;-88
2022/09/25 06:53:02;;;;;;;;;5.50;4.25;;;;;13.72;64.00;101345.03;5040504;28;45927;-87
2022/09/25 06:55:31;;;;;;;;;6.25;3.00;;;;;13.69;63.98;101340.78;5036157;28;53821;-86
2022/09/25 06:57:56;;;;;;;;;6.00;3.00;;;;;13.67;64.21;101352.16;5042152;28;45764;-86
2022/09/25 07:00:22;;;;;;;;;4.00;2.25;;;;;13.68;63.55;101343.44;5056822;28;45372;-87
2022/09/25 07:05:32;;;;;;;;;4.25;4.00;;;;;13.70;63.88;101352.09;5027594;28;45337;-83
2022/09/25 07:07:58;;;;;;;;;3.00;3.00;;;;;13.70;63.56;101358.16;5001031;28;45867;-84
2022/09/25 07:10:23;;;;;;;;;4.00;2.00;;;;;13.72;63.80;101361.63;5030357;28;45366;-84
2022/09/25 07:12:48;;;;;;;;;4.75;2.00;;;;;13.73;64.00;101360.69;5035968;28;45279;-85
2022/09/25 07:15:14;;;;;;;;;8.00;3.00;;;;;13.72;63.72;101366.84;5019884;28;46002;-85
2022/09/25 07:17:43;;;;;;;;;3.50;2.00;;;;;13.74;63.78;101362.41;5026038;28;45425;-85
2022/09/25 07:20:11;;;;;;;;;4.00;2.75;;;;;13.80;63.75;101356.13;5017551;28;45283;-85
2022/09/25 07:22:37;;;;;;;;;1.50;0.75;;;;;13.82;64.56;101359.53;5015859;28;45304;-84
2022/09/25 07:25:03;;;;;;;;;3.50;2.25;;;;;13.86;63.80;101357.69;5037571;28;45425;-84
2022/09/25 07:27:29;;;;;;;;;4.00;2.50;;;;;13.89;63.97;101354.94;5019424;28;45445;-85
2022/09/25 07:29:56;;;;;;;;;2.25;2.00;;;;;13.93;63.81;101356.59;5036971;28;45452;-89
2022/09/25 07:32:22;;;;;;;;;2.75;2.00;;;;;13.97;63.52;101363.41;5037875;28;45560;-92
2022/09/25 07:34:50;;;;;;;;;2.75;1.00;;;;;13.99;63.54;101363.38;5036476;28;45424;-94
2022/09/25 07:37:19;;;;;;;;;3.00;2.75;;;;;14.04;63.72;101370.16;5020755;28;45391;-87
2022/09/25 07:39:44;;;;;;;;;4.00;2.00;;;;;14.07;63.27;101369.19;5037716;28;45367;-87
2022/09/25 07:42:10;;;;;;;;;5.00;2.00;;;;;14.07;63.26;101363.97;5037233;28;45427;-87
2022/09/25 07:44:35;;;;;;;;;5.50;2.25;;;;;14.12;63.26;101375.16;5037398;28;46448;-87
2022/09/25 07:47:02;;;;;;;;;3.00;1.75;;;;;14.13;63.19;101363.75;5019097;28;46042;-87
2022/09/25 07:49:28;;;;;;;;;3.00;1.75;;;;;14.16;62.78;101370.66;5019219;28;45239;-87
2022/09/25 07:51:54;;;;;;;;;1.00;1.00;;;;;14.18;63.19;101366.22;5019719;28;45305;-87
2022/09/25 07:54:19;;;;;;;;;1.00;1.00;;;;;14.24;62.75;101360.78;5019458;28;45755;-87
2022/09/25 07:56:45;;;;;;;;;2.50;2.00;;;;;14.26;63.10;101370.31;5036961;28;45369;-88
2022/09/25 07:59:10;;;;;;;;;0.00;0.00;;;;;14.34;63.04;101367.41;5019621;28;45346;-87
2022/09/25 08:01:35;;;;;;;;;2.00;1.00;;;;;14.39;62.50;101362.00;5037055;28;45483;-87
2022/09/25 08:04:01;;;;;;;;;3.00;2.00;;;;;14.44;62.42;101379.28;5018447;28;49909;-87
2022/09/25 08:06:26;;;;;;;;;1.00;1.00;;;;;14.49;62.17;101376.50;5055253;28;45547;-88
2022/09/25 08:08:52;;;;;;;;;1.00;1.00;;;;;14.56;62.52;101379.75;5057071;28;45354;-87
2022/09/25 08:11:17;;;;;;;;;1.75;0.00;;;;;14.62;62.72;101377.81;5038369;28;65580;-87
2022/09/25 08:13:43;;;;;;;;;2.00;1.00;;;;;14.70;62.20;101374.91;5018781;28;48495;-87
2022/09/25 08:16:14;;;;;;;;;1.75;1.00;;;;;14.75;62.17;101375.59;5019229;28;45860;-88
2022/09/25 08:18:41;;;;;;;;;2.00;1.00;;;;;14.82;61.95;101379.72;5036632;28;45397;-87
2022/09/25 08:21:07;;;;;;;;;2.50;1.00;;;;;14.90;61.68;101379.44;5037406;28;45425;-88
2022/09/25 08:23:33;;;;;;;;;0.00;0.00;;;;;14.96;61.80;101389.69;5019036;28;45540;-87
2022/09/25 08:25:59;;;;;;;;;0.00;0.00;;;;;15.02;61.04;101389.44;5018755;28;45366;-88
2022/09/25 08:28:24;;;;;;;;;2.00;1.00;;;;;15.07;61.17;101378.81;5018505;28;45359;-88
2022/09/25 08:30:50;;;;;;;;;2.25;1.00;;;;;15.10;60.87;101379.53;5036644;28;45414;-88
2022/09/25 08:33:16;;;;;;;;;2.25;0.00;;;;;15.16;60.38;101386.31;5034789;28;46838;-87
2022/09/25 08:35:41;;;;;;;;;1.75;1.00;;;;;15.19;60.39;101386.22;5058502;28;46886;-88
2022/09/25 08:38:07;;;;;;;;;2.00;2.00;;;;;15.25;60.40;101385.13;5076890;28;45352;-87
2022/09/25 08:40:37;;;;;;;;;1.25;1.00;;;;;15.27;60.00;101381.53;5075604;28;45253;-87
2022/09/25 08:43:03;;;;;;;;;3.25;1.00;;;;;15.32;60.28;101386.56;5043687;28;46250;-87
2022/09/25 08:51:09;;;;;;;;;7.00;4.00;;;;;15.40;59.50;101384.53;5056325;28;45336;-88
2022/09/25 08:53:34;;;;;;;;;2.25;2.00;;;;;15.45;59.62;101386.97;5038281;28;45468;-88
2022/09/25 08:56:14;;;;;;;;;3.00;3.00;;;;;15.48;59.20;101378.97;5038153;28;45464;-88
2022/09/25 08:58:53;;;;;;;;;2.75;2.00;;;;;15.54;59.19;101378.72;5056189;28;45361;-87
2022/09/25 09:01:23;;;;;;;;;3.00;3.00;;;;;15.60;58.86;101385.50;5037787;28;45545;-87
2022/09/25 09:04:05;;;;;;;;;0.75;0.75;;;;;15.65;58.58;101375.69;5054695;28;45393;-87
2022/09/25 09:06:32;;;;;;;;;0.00;0.00;;;;;15.70;57.80;101381.63;5037969;28;45437;-87
2022/09/25 09:09:03;;;;;;;;;1.00;1.00;;;;;15.73;57.46;101383.25;5038128;28;45397;-88
2022/09/25 09:11:41;;;;;;;;;4.75;3.75;;;;;15.73;57.21;101376.25;5038267;28;45313;-87
2022/09/25 09:14:15;;;;;;;;;8.25;5.75;;;;;15.78;57.01;101386.59;5054481;28;47062;-87
2022/09/25 09:16:44;;;;;;;;;3.00;3.00;;;;;15.79;57.16;101381.28;5054271;28;45746;-88
2022/09/25 09:19:11;;;;;;;;;5.50;4.00;;;;;15.86;56.10;101382.75;5038149;28;45423;-87
2022/09/25 09:21:55;;;;;;;;;1.00;1.00;;;;;15.92;55.69;101381.63;5038100;28;45469;-87
2022/09/25 09:24:34;;;;;;;;;2.50;1.50;;;;;15.97;55.78;101390.19;5055800;28;46410;-88
2022/09/25 09:27:05;;;;;;;;;4.00;3.75;;;;;15.98;55.71;101388.41;5055681;28;45361;-88
2022/09/25 09:29:50;;;;;;;;;3.25;2.00;;;;;16.03;55.18;101394.31;5055678;28;45298;-86
2022/09/25 09:32:34;;;;;;;;;2.75;1.00;;;;;16.08;55.23;101386.25;5037903;28;45385;-87
2022/09/25 09:35:27;;;;;;;;;1.25;0.25;;;;;16.14;55.61;101388.59;5035625;28;45645;-87
2022/09/25 09:38:14;;;;;;;;;3.00;1.00;;;;;16.23;54.92;101388.22;5035556;28;45641;-88
2022/09/25 09:41:08;;;;;;;;;2.75;2.75;;;;;16.32;54.84;101384.34;5019777;28;45348;-88
2022/09/25 09:44:07;;;;;;;;;1.00;1.00;;;;;16.35;54.51;101379.81;5039557;28;45592;-87
2022/09/25 09:46:46;;;;;;;;;0.25;0.25;;;;;16.39;53.89;101391.91;5053775;28;46595;-87
2022/09/25 09:49:26;;;;;;;;;11.00;10.50;;;;;16.44;53.95;101387.31;5059277;28;45328;-87
2022/09/25 09:52:10;;;;;;;;;1.50;1.25;;;;;16.50;53.13;101383.56;5041234;28;45386;-88
2022/09/25 09:54:44;;;;;;;;;4.00;3.75;;;;;16.57;53.48;101386.78;5024653;28;45453;-87
2022/09/25 09:57:17;;;;;;;;;5.50;4.50;;;;;16.62;53.17;101384.78;5041104;28;45382;-87
2022/09/25 09:59:54;;;;;;;;;16.00;14.75;;;;;16.69;52.66;101380.13;5040752;28;45250;-87
2022/09/25 10:02:33;;;;;;;;;4.00;3.00;;;;;16.78;53.09;101390.25;5040979;28;45392;-87
2022/09/25 10:05:02;;;;;;;;;2.00;1.00;;;;;16.89;52.77;101384.53;5057570;28;45410;-87
2022/09/25 10:07:30;;;;;;;;;1.00;0.00;;;;;16.95;52.00;101386.88;5040956;28;47016;-87
2022/09/25 10:09:55;;;;;;;;;0.00;0.00;;;;;16.95;51.43;101379.84;5058670;28;45736;-87
2022/09/25 10:12:29;;;;;;;;;2.00;2.00;;;;;16.98;50.98;101378.88;5041110;28;45278;-87
2022/09/25 10:14:56;;;;;;;;;2.00;2.00;;;;;17.02;51.23;101376.00;5037346;28;45521;-87
2022/09/25 10:17:22;;;;;;;;;4.00;1.75;;;;;17.04;50.30;101373.31;5020549;28;45393;-87
2022/09/25 10:19:52;;;;;;;;;3.00;0.00;;;;;17.10;49.98;101373.03;5020877;28;45390;-87
2022/09/25 10:22:21;;;;;;;;;3.25;3.00;;;;;17.16;50.09;101364.00;5038681;28;45950;-87
2022/09/25 10:25:04;;;;;;;;;1.25;1.00;;;;;17.22;50.18;101369.00;5020636;28;45276;-87
2022/09/25 10:27:40;;;;;;;;;2.00;2.00;;;;;17.29;49.82;101365.16;5019840;28;47933;-87
2022/09/25 10:30:08;;;;;;;;;3.00;2.75;;;;;17.38;49.41;101366.47;5038359;28;45286;-87
2022/09/25 10:32:44;;;;;;;;;8.00;8.00;;;;;17.47;49.07;101354.66;5025462;28;45506;-87
2022/09/25 10:35:20;;;;;;;;;9.50;6.50;;;;;17.55;48.77;101357.75;5078845;27;45302;-87
2022/09/25 10:37:51;;;;;;;;;2.00;1.00;;;;;17.63;47.84;101358.25;5060570;28;46096;-87
2022/09/25 10:40:30;;;;;;;;;1.00;1.00;;;;;17.68;47.55;101356.25;5078905;27;45783;-87
2022/09/25 10:43:14;;;;;;;;;1.00;0.00;;;;;17.74;46.31;101357.75;5075762;27;45362;-86
2022/09/25 10:45:40;;;;;;;;;9.00;5.00;;;;;17.79;46.43;101356.59;5057271;28;45499;-87
2022/09/25 10:51:20;;;;;;;;;0.00;0.00;;;;;17.98;45.99;101350.44;5002053;28;45675;-87
2022/09/25 10:53:46;;;;;;;;;1.00;1.00;;;;;18.09;44.81;101352.50;5016124;28;45379;-90
2022/09/25 10:56:19;;;;;;;;;8.50;8.50;;;;;18.21;45.52;101345.78;4999204;28;45593;-84
2022/09/25 10:58:46;;;;;;;;;4.00;3.50;;;;;18.32;45.05;101346.06;4982884;28;48192;-86
2022/09/25 11:01:12;;;;;;;;;8.50;7.25;;;;;18.45;44.92;101352.41;5016162;28;45421;-90
2022/09/25 11:03:58;;;;;;;;;23.50;19.00;;;;;18.60;44.86;101350.75;5000612;28;45311;-91
2022/09/25 11:06:28;;;;;;;;;4.00;2.75;;;;;18.75;45.05;101351.72;4999443;28;45628;-92
2022/09/25 11:09:12;;;;;;;;;2.50;1.75;;;;;18.95;43.81;101355.97;5018148;28;45638;-90
2022/09/25 11:11:39;;;;;;;;;6.00;3.25;;;;;19.15;43.68;101355.72;4999293;28;45671;-88
2022/09/25 11:14:07;;;;;;;;;5.25;5.25;;;;;19.38;42.78;101358.00;4996915;28;45422;-85
2022/09/25 11:16:41;;;;;;;;;0.50;0.50;;;;;19.73;42.61;101358.69;4995642;28;45577;-85
2022/09/25 11:19:11;;;;;;;;;2.25;1.00;;;;;20.19;42.28;101361.28;4995529;28;46119;-85
2022/09/25 11:21:46;;;;;;;;;1.00;1.00;;;;;22.26;41.47;101359.66;4995547;28;45749;-84
2022/09/25 11:24:41;;;;;;;;;2.00;0.00;;;;;25.33;38.54;101361.66;4995662;28;45445;-85
2022/09/25 11:27:13;;;;;;;;;3.50;1.00;;;;;28.30;33.98;101366.91;4995250;28;45263;-85
2022/09/25 11:29:53;;;;;;;;;1.50;1.00;;;;;30.43;30.08;101365.66;5003011;28;48357;-85
2022/09/25 11:32:38;;;;;;;;;1.00;0.25;;;;;31.79;28.93;101371.75;5038051;28;45810;-86
2022/09/25 11:35:16;;;;;;;;;2.50;0.25;;;;;33.48;27.41;101369.88;5060172;28;45353;-86
2022/09/25 11:38:01;;;;;;;;;2.00;2.00;;;;;34.72;24.66;101380.38;5077960;28;45345;-86
2022/09/25 11:43:50;;;;;;;;;4.00;4.00;;;;;36.65;22.52;101386.72;5077640;28;45360;-86
2022/09/25 11:46:25;;;;;;;;;4.00;2.50;;;;;37.21;21.20;101383.03;5057329;28;45336;-87
2022/09/25 11:49:14;;;;;;;;;4.25;2.25;;;;;37.70;20.38;101374.53;5057300;28;45393;-88
2022/09/25 11:52:07;;;;;;;;;3.75;0.25;;;;;38.15;19.54;101373.88;5039660;28;45409;-88
2022/09/25 11:54:37;;;;;;;;;0.00;0.00;;;;;38.32;18.61;101369.66;5057070;28;45483;-87
2022/09/25 11:57:10;;;;;;;;;6.25;5.00;;;;;38.80;18.99;101370.34;5039354;28;45310;-83
2022/09/25 11:59:43;;;;;;;;;0.75;0.00;;;;;39.04;18.13;101363.34;5056070;28;45656;-83
2022/09/25 12:02:20;;;;;;;;;0.00;0.00;;;;;39.30;18.12;101368.63;5056605;28;45222;-86